sensor_id;sensor_type;location;lat;lon;timestamp;P1;P2;P0
44933;PMS3003;30667;43.614;1.442;2022-10-16T00:00:42;15.00;15.00;8.00
44933;PMS3003;30667;43.614;1.442;2022-10-16T00:03:08;14.40;13.40;7.20
44933;PMS3003;30667;43.614;1.442;2022-10-16T00:05:40;14.00;14.00;8.60
44933;PMS3003;30667;43.614;1.442;2022-10-16T00:08:07;17.60;14.60;8.00
44933;PMS3003;30667;43.614;1.442;2022-10-16T00:10:34;15.00;13.80;7.60
44933;PMS3003;30667;43.614;1.442;2022-10-16T00:13:00;14.20;14.20;8.40
44933;PMS3003;30667;43.614;1.442;2022-10-16T00:15:26;16.75;16.00;8.00
44933;PMS3003;30667;43.614;1.442;2022-10-16T00:17:51;14.25;13.50;8.00
44933;PMS3003;30667;43.614;1.442;2022-10-16T00:20:17;16.75;14.75;8.00
44933;PMS3003;30667;43.614;1.442;2022-10-16T00:22:42;16.25;15.00;9.00
44933;PMS3003;30667;43.614;1.442;2022-10-16T00:25:08;16.00;15.00;10.75
44933;PMS3003;30667;43.614;1.442;2022-10-16T00:27:34;13.40;13.40;7.60
44933;PMS3003;30667;43.614;1.442;2022-10-16T00:29:59;13.00;12.00;7.00
44933;PMS3003;30667;43.614;1.442;2022-10-16T00:32:24;16.75;14.00;8.00
44933;PMS3003;30667;43.614;1.442;2022-10-16T00:34:50;15.75;14.00;8.50
44933;PMS3003;30667;43.614;1.442;2022-10-16T00:37:15;14.00;14.00;8.00
44933;PMS3003;30667;43.614;1.442;2022-10-16T00:39:41;15.00;12.75;8.00
44933;PMS3003;30667;43.614;1.442;2022-10-16T00:42:06;16.25;15.50;8.00
44933;PMS3003;30667;43.614;1.442;2022-10-16T00:45:00;16.00;15.80;8.80
44933;PMS3003;30667;43.614;1.442;2022-10-16T00:52:32;14.20;13.60;7.80
44933;PMS3003;30667;43.614;1.442;2022-10-16T00:54:59;15.60;15.40;9.00
44933;PMS3003;30667;43.614;1.442;2022-10-16T00:57:26;13.60;13.60;8.40
44933;PMS3003;30667;43.614;1.442;2022-10-16T00:59:51;15.25;15.00;9.00
44933;PMS3003;30667;43.614;1.442;2022-10-16T01:02:18;15.20;15.20;8.00
44933;PMS3003;30667;43.614;1.442;2022-10-16T01:04:48;16.50;15.00;8.75
44933;PMS3003;30667;43.614;1.442;2022-10-16T01:13:02;15.60;14.80;9.80
44933;PMS3003;30667;43.614;1.442;2022-10-16T01:15:41;14.00;13.40;7.60
44933;PMS3003;30667;43.614;1.442;2022-10-16T01:20:47;16.25;14.50;7.25
44933;PMS3003;30667;43.614;1.442;2022-10-16T01:28:13;14.00;13.00;7.60
44933;PMS3003;30667;43.614;1.442;2022-10-16T01:30:42;17.00;15.40;8.00
44933;PMS3003;30667;43.614;1.442;2022-10-16T01:35:49;18.80;17.00;8.40
44933;PMS3003;30667;43.614;1.442;2022-10-16T01:38:26;14.00;13.40;7.00
44933;PMS3003;30667;43.614;1.442;2022-10-16T01:41:00;15.80;14.20;7.00
44933;PMS3003;30667;43.614;1.442;2022-10-16T01:43:33;13.00;13.00;7.60
44933;PMS3003;30667;43.614;1.442;2022-10-16T01:46:03;13.00;12.60;6.20
44933;PMS3003;30667;43.614;1.442;2022-10-16T01:48:31;14.00;13.00;6.60
44933;PMS3003;30667;43.614;1.442;2022-10-16T01:51:19;18.60;15.20;7.00
44933;PMS3003;30667;43.614;1.442;2022-10-16T01:53:47;15.20;13.40;7.00
44933;PMS3003;30667;43.614;1.442;2022-10-16T01:56:17;14.20;12.40;7.40
44933;PMS3003;30667;43.614;1.442;2022-10-16T01:58:47;16.60;12.40;7.60
44933;PMS3003;30667;43.614;1.442;2022-10-16T02:01:18;14.20;14.00;7.80
44933;PMS3003;30667;43.614;1.442;2022-10-16T02:03:48;12.40;12.40;7.00
44933;PMS3003;30667;43.614;1.442;2022-10-16T02:06:17;13.40;13.00;6.60
44933;PMS3003;30667;43.614;1.442;2022-10-16T02:08:46;15.80;14.80;7.80
44933;PMS3003;30667;43.614;1.442;2022-10-16T02:11:13;12.20;11.60;6.20
44933;PMS3003;30667;43.614;1.442;2022-10-16T02:13:43;15.00;14.00;6.20
44933;PMS3003;30667;43.614;1.442;2022-10-16T02:16:14;13.40;13.40;7.80
44933;PMS3003;30667;43.614;1.442;2022-10-16T02:18:41;15.60;14.80;8.40
44933;PMS3003;30667;43.614;1.442;2022-10-16T02:21:11;13.40;12.80;7.00
44933;PMS3003;30667;43.614;1.442;2022-10-16T02:23:51;16.00;14.60;8.00
44933;PMS3003;30667;43.614;1.442;2022-10-16T02:26:43;13.80;12.80;7.00
44933;PMS3003;30667;43.614;1.442;2022-10-16T02:29:17;14.80;13.20;7.40
44933;PMS3003;30667;43.614;1.442;2022-10-16T02:31:46;15.00;13.20;8.40
44933;PMS3003;30667;43.614;1.442;2022-10-16T02:34:18;15.40;14.20;7.00
44933;PMS3003;30667;43.614;1.442;2022-10-16T02:36:46;13.80;12.80;7.00
44933;PMS3003;30667;43.614;1.442;2022-10-16T02:39:15;13.60;13.00;7.00
44933;PMS3003;30667;43.614;1.442;2022-10-16T02:41:42;15.00;14.00;7.60
44933;PMS3003;30667;43.614;1.442;2022-10-16T02:44:07;16.75;15.00;8.50
44933;PMS3003;30667;43.614;1.442;2022-10-16T02:46:34;14.00;12.25;7.50
44933;PMS3003;30667;43.614;1.442;2022-10-16T02:49:00;14.40;14.00;7.40
44933;PMS3003;30667;43.614;1.442;2022-10-16T02:51:27;11.00;9.60;6.00
44933;PMS3003;30667;43.614;1.442;2022-10-16T02:53:52;16.50;14.75;8.00
44933;PMS3003;30667;43.614;1.442;2022-10-16T02:56:19;14.60;14.40;7.20
44933;PMS3003;30667;43.614;1.442;2022-10-16T02:58:44;15.25;14.75;8.00
44933;PMS3003;30667;43.614;1.442;2022-10-16T03:01:10;15.50;13.75;8.00
44933;PMS3003;30667;43.614;1.442;2022-10-16T03:03:37;14.60;14.40;7.20
44933;PMS3003;30667;43.614;1.442;2022-10-16T03:06:03;18.00;14.20;7.00
44933;PMS3003;30667;43.614;1.442;2022-10-16T03:08:29;14.80;14.80;7.80
44933;PMS3003;30667;43.614;1.442;2022-10-16T03:10:55;17.25;13.00;6.00
44933;PMS3003;30667;43.614;1.442;2022-10-16T03:13:21;14.00;13.60;7.60
44933;PMS3003;30667;43.614;1.442;2022-10-16T03:15:47;15.00;14.25;8.00
44933;PMS3003;30667;43.614;1.442;2022-10-16T03:18:15;16.80;15.80;8.00
44933;PMS3003;30667;43.614;1.442;2022-10-16T03:20:40;13.20;13.20;7.20
44933;PMS3003;30667;43.614;1.442;2022-10-16T03:23:07;15.00;15.00;9.40
44933;PMS3003;30667;43.614;1.442;2022-10-16T03:25:35;12.80;11.80;7.80
44933;PMS3003;30667;43.614;1.442;2022-10-16T03:28:00;14.25;14.00;6.75
44933;PMS3003;30667;43.614;1.442;2022-10-16T03:30:26;14.50;14.00;7.50
44933;PMS3003;30667;43.614;1.442;2022-10-16T03:32:52;15.20;14.60;7.20
44933;PMS3003;30667;43.614;1.442;2022-10-16T03:35:19;14.60;13.80;7.20
44933;PMS3003;30667;43.614;1.442;2022-10-16T03:37:45;16.00;13.80;7.00
44933;PMS3003;30667;43.614;1.442;2022-10-16T03:40:13;13.20;12.80;7.20
44933;PMS3003;30667;43.614;1.442;2022-10-16T03:42:42;17.60;16.60;9.60
44933;PMS3003;30667;43.614;1.442;2022-10-16T03:45:08;16.40;16.00;9.00
44933;PMS3003;30667;43.614;1.442;2022-10-16T03:47:34;18.80;16.00;9.00
44933;PMS3003;30667;43.614;1.442;2022-10-16T03:50:01;18.25;15.25;9.00
44933;PMS3003;30667;43.614;1.442;2022-10-16T03:52:27;17.00;15.60;8.20
44933;PMS3003;30667;43.614;1.442;2022-10-16T03:54:52;16.00;15.50;8.75
44933;PMS3003;30667;43.614;1.442;2022-10-16T03:57:18;18.00;16.25;9.75
44933;PMS3003;30667;43.614;1.442;2022-10-16T03:59:45;17.50;16.50;8.25
44933;PMS3003;30667;43.614;1.442;2022-10-16T04:02:10;17.20;15.20;8.00
44933;PMS3003;30667;43.614;1.442;2022-10-16T04:04:35;14.50;14.25;8.00
44933;PMS3003;30667;43.614;1.442;2022-10-16T04:07:01;14.75;14.00;7.00
44933;PMS3003;30667;43.614;1.442;2022-10-16T04:09:26;19.50;16.25;9.00
44933;PMS3003;30667;43.614;1.442;2022-10-16T04:11:52;17.00;16.25;10.00
44933;PMS3003;30667;43.614;1.442;2022-10-16T04:14:18;17.80;16.00;9.80
44933;PMS3003;30667;43.614;1.442;2022-10-16T04:16:43;16.75;15.00;8.00
44933;PMS3003;30667;43.614;1.442;2022-10-16T04:19:09;13.75;13.50;7.25
44933;PMS3003;30667;43.614;1.442;2022-10-16T04:21:35;19.00;15.80;9.00
44933;PMS3003;30667;43.614;1.442;2022-10-16T04:24:01;15.25;15.00;8.00
44933;PMS3003;30667;43.614;1.442;2022-10-16T04:26:26;14.50;14.25;7.25
44933;PMS3003;30667;43.614;1.442;2022-10-16T04:28:52;16.50;15.50;8.50
44933;PMS3003;30667;43.614;1.442;2022-10-16T04:31:17;17.75;16.25;9.00
44933;PMS3003;30667;43.614;1.442;2022-10-16T04:33:43;15.00;15.00;9.00
44933;PMS3003;30667;43.614;1.442;2022-10-16T04:36:08;18.80;17.60;11.60
44933;PMS3003;30667;43.614;1.442;2022-10-16T04:38:34;19.50;17.50;10.00
44933;PMS3003;30667;43.614;1.442;2022-10-16T04:41:02;19.60;17.00;9.00
44933;PMS3003;30667;43.614;1.442;2022-10-16T04:43:28;15.60;15.00;9.00
44933;PMS3003;30667;43.614;1.442;2022-10-16T04:45:53;18.00;16.00;9.00
44933;PMS3003;30667;43.614;1.442;2022-10-16T04:48:19;16.20;15.60;8.40
44933;PMS3003;30667;43.614;1.442;2022-10-16T04:50:45;19.20;16.40;9.60
44933;PMS3003;30667;43.614;1.442;2022-10-16T04:53:11;17.60;16.00;8.40
44933;PMS3003;30667;43.614;1.442;2022-10-16T04:55:37;15.80;15.80;9.40
44933;PMS3003;30667;43.614;1.442;2022-10-16T04:58:03;17.00;16.00;9.60
44933;PMS3003;30667;43.614;1.442;2022-10-16T05:00:28;16.25;15.00;9.00
44933;PMS3003;30667;43.614;1.442;2022-10-16T05:02:54;18.25;17.00;10.00
44933;PMS3003;30667;43.614;1.442;2022-10-16T05:05:19;16.75;16.00;9.00
44933;PMS3003;30667;43.614;1.442;2022-10-16T05:07:45;14.75;14.25;8.75
44933;PMS3003;30667;43.614;1.442;2022-10-16T05:10:11;17.60;17.00;9.20
44933;PMS3003;30667;43.614;1.442;2022-10-16T05:12:36;16.50;15.00;8.00
44933;PMS3003;30667;43.614;1.442;2022-10-16T05:15:02;17.75;17.00;11.00
44933;PMS3003;30667;43.614;1.442;2022-10-16T05:17:29;21.00;17.60;10.80
44933;PMS3003;30667;43.614;1.442;2022-10-16T05:19:55;17.50;16.00;9.00
44933;PMS3003;30667;43.614;1.442;2022-10-16T05:22:21;16.00;15.25;8.00
44933;PMS3003;30667;43.614;1.442;2022-10-16T05:24:46;17.00;17.00;10.25
44933;PMS3003;30667;43.614;1.442;2022-10-16T05:27:12;18.75;18.75;11.50
44933;PMS3003;30667;43.614;1.442;2022-10-16T05:29:44;15.60;14.40;9.40
44933;PMS3003;30667;43.614;1.442;2022-10-16T05:32:11;14.80;14.80;8.60
44933;PMS3003;30667;43.614;1.442;2022-10-16T05:34:38;18.60;16.60;10.00
44933;PMS3003;30667;43.614;1.442;2022-10-16T05:37:03;16.50;15.75;9.00
44933;PMS3003;30667;43.614;1.442;2022-10-16T05:39:29;20.00;15.20;9.20
44933;PMS3003;30667;43.614;1.442;2022-10-16T05:41:55;19.00;16.25;10.25
44933;PMS3003;30667;43.614;1.442;2022-10-16T05:44:20;15.25;14.00;8.25
44933;PMS3003;30667;43.614;1.442;2022-10-16T05:46:46;20.00;18.00;10.25
44933;PMS3003;30667;43.614;1.442;2022-10-16T05:49:12;15.40;15.00;9.40
44933;PMS3003;30667;43.614;1.442;2022-10-16T05:51:37;17.75;15.25;8.75
44933;PMS3003;30667;43.614;1.442;2022-10-16T05:54:02;17.00;16.25;10.00
44933;PMS3003;30667;43.614;1.442;2022-10-16T05:56:28;16.00;15.25;8.50
44933;PMS3003;30667;43.614;1.442;2022-10-16T05:58:55;15.40;15.00;9.60
44933;PMS3003;30667;43.614;1.442;2022-10-16T06:01:21;15.00;15.00;8.50
44933;PMS3003;30667;43.614;1.442;2022-10-16T06:03:49;13.40;12.20;6.60
44933;PMS3003;30667;43.614;1.442;2022-10-16T06:06:17;11.80;10.20;5.00
44933;PMS3003;30667;43.614;1.442;2022-10-16T06:08:45;10.00;10.00;6.40
44933;PMS3003;30667;43.614;1.442;2022-10-16T06:11:13;11.40;11.20;5.40
44933;PMS3003;30667;43.614;1.442;2022-10-16T06:13:43;13.80;12.80;8.00
44933;PMS3003;30667;43.614;1.442;2022-10-16T06:16:11;14.00;13.00;8.40
44933;PMS3003;30667;43.614;1.442;2022-10-16T06:18:37;17.40;16.40;8.00
44933;PMS3003;30667;43.614;1.442;2022-10-16T06:21:08;15.00;14.20;8.40
44933;PMS3003;30667;43.614;1.442;2022-10-16T06:23:39;16.60;16.00;11.60
44933;PMS3003;30667;43.614;1.442;2022-10-16T06:26:08;15.50;15.25;9.75
44933;PMS3003;30667;43.614;1.442;2022-10-16T06:28:34;18.00;16.20;10.00
44933;PMS3003;30667;43.614;1.442;2022-10-16T06:31:00;18.00;16.80;10.20
44933;PMS3003;30667;43.614;1.442;2022-10-16T06:33:27;18.60;17.40;9.60
44933;PMS3003;30667;43.614;1.442;2022-10-16T06:35:53;19.75;17.00;10.00
44933;PMS3003;30667;43.614;1.442;2022-10-16T06:38:18;17.50;17.00;11.75
44933;PMS3003;30667;43.614;1.442;2022-10-16T06:40:44;14.75;14.75;8.75
44933;PMS3003;30667;43.614;1.442;2022-10-16T06:43:09;16.00;16.00;10.00
44933;PMS3003;30667;43.614;1.442;2022-10-16T06:45:34;19.50;18.25;12.50
44933;PMS3003;30667;43.614;1.442;2022-10-16T06:48:00;17.25;15.75;9.00
44933;PMS3003;30667;43.614;1.442;2022-10-16T06:50:25;17.50;17.50;10.00
44933;PMS3003;30667;43.614;1.442;2022-10-16T06:52:51;19.25;16.75;11.75
44933;PMS3003;30667;43.614;1.442;2022-10-16T06:55:16;16.25;16.00;9.50
44933;PMS3003;30667;43.614;1.442;2022-10-16T06:57:42;16.50;15.75;9.00
44933;PMS3003;30667;43.614;1.442;2022-10-16T07:00:08;23.60;19.00;12.20
44933;PMS3003;30667;43.614;1.442;2022-10-16T07:02:34;23.00;19.60;11.20
44933;PMS3003;30667;43.614;1.442;2022-10-16T07:04:59;16.25;15.25;9.50
44933;PMS3003;30667;43.614;1.442;2022-10-16T07:07:25;18.25;17.50;10.75
44933;PMS3003;30667;43.614;1.442;2022-10-16T07:09:51;18.00;17.00;10.20
44933;PMS3003;30667;43.614;1.442;2022-10-16T07:12:17;18.00;17.25;10.00
44933;PMS3003;30667;43.614;1.442;2022-10-16T07:14:42;20.00;18.25;11.50
44933;PMS3003;30667;43.614;1.442;2022-10-16T07:17:08;17.75;17.75;12.00
44933;PMS3003;30667;43.614;1.442;2022-10-16T07:19:33;19.00;17.00;10.00
44933;PMS3003;30667;43.614;1.442;2022-10-16T07:21:59;18.60;16.60;10.20
44933;PMS3003;30667;43.614;1.442;2022-10-16T07:24:25;16.60;16.20;10.40
44933;PMS3003;30667;43.614;1.442;2022-10-16T07:26:51;21.50;19.00;11.50
44933;PMS3003;30667;43.614;1.442;2022-10-16T07:29:17;18.25;17.25;10.00
44933;PMS3003;30667;43.614;1.442;2022-10-16T07:31:44;18.40;17.40;11.60
44933;PMS3003;30667;43.614;1.442;2022-10-16T07:34:11;19.40;17.60;11.60
44933;PMS3003;30667;43.614;1.442;2022-10-16T07:36:38;17.00;16.40;10.40
44933;PMS3003;30667;43.614;1.442;2022-10-16T07:39:04;16.00;15.25;8.50
44933;PMS3003;30667;43.614;1.442;2022-10-16T07:41:29;15.75;15.00;9.00
44933;PMS3003;30667;43.614;1.442;2022-10-16T07:43:55;19.50;16.00;10.25
44933;PMS3003;30667;43.614;1.442;2022-10-16T07:46:24;20.20;16.40;9.00
44933;PMS3003;30667;43.614;1.442;2022-10-16T07:48:51;17.00;16.00;10.80
44933;PMS3003;30667;43.614;1.442;2022-10-16T07:51:20;15.50;15.25;10.00
44933;PMS3003;30667;43.614;1.442;2022-10-16T07:53:48;15.40;14.80;9.00
44933;PMS3003;30667;43.614;1.442;2022-10-16T07:56:14;18.00;16.00;9.00
44933;PMS3003;30667;43.614;1.442;2022-10-16T07:58:40;15.00;13.80;9.00
44933;PMS3003;30667;43.614;1.442;2022-10-16T08:01:10;16.75;15.00;10.00
44933;PMS3003;30667;43.614;1.442;2022-10-16T08:03:36;15.20;14.80;9.40
44933;PMS3003;30667;43.614;1.442;2022-10-16T08:06:02;17.00;15.00;9.00
44933;PMS3003;30667;43.614;1.442;2022-10-16T08:08:29;15.00;12.40;7.80
44933;PMS3003;30667;43.614;1.442;2022-10-16T08:10:55;15.20;14.80;8.80
44933;PMS3003;30667;43.614;1.442;2022-10-16T08:13:20;14.40;13.40;7.60
44933;PMS3003;30667;43.614;1.442;2022-10-16T08:15:46;16.75;15.00;8.25
44933;PMS3003;30667;43.614;1.442;2022-10-16T08:18:13;19.20;17.40;10.40
44933;PMS3003;30667;43.614;1.442;2022-10-16T08:20:39;16.80;15.40;10.00
44933;PMS3003;30667;43.614;1.442;2022-10-16T08:23:06;15.00;13.60;8.80
44933;PMS3003;30667;43.614;1.442;2022-10-16T08:25:33;15.75;14.75;8.75
44933;PMS3003;30667;43.614;1.442;2022-10-16T08:28:00;14.60;14.40;8.60
44933;PMS3003;30667;43.614;1.442;2022-10-16T08:30:28;17.60;17.60;11.00
44933;PMS3003;30667;43.614;1.442;2022-10-16T08:32:54;15.75;15.25;9.75
44933;PMS3003;30667;43.614;1.442;2022-10-16T08:35:19;19.75;17.50;10.25
44933;PMS3003;30667;43.614;1.442;2022-10-16T08:37:44;19.50;18.50;11.25
44933;PMS3003;30667;43.614;1.442;2022-10-16T08:40:20;19.00;17.75;11.00
44933;PMS3003;30667;43.614;1.442;2022-10-16T08:48:41;18.00;16.20;9.00
44933;PMS3003;30667;43.614;1.442;2022-10-16T08:51:11;14.60;13.60;7.60
44933;PMS3003;30667;43.614;1.442;2022-10-16T08:53:46;17.40;16.00;9.00
44933;PMS3003;30667;43.614;1.442;2022-10-16T08:56:17;16.40;16.00;8.80
44933;PMS3003;30667;43.614;1.442;2022-10-16T08:58:43;16.40;16.00;9.00
44933;PMS3003;30667;43.614;1.442;2022-10-16T09:01:12;14.40;13.00;7.00
44933;PMS3003;30667;43.614;1.442;2022-10-16T09:11:50;15.40;15.00;8.40
44933;PMS3003;30667;43.614;1.442;2022-10-16T09:14:28;16.80;15.80;8.60
44933;PMS3003;30667;43.614;1.442;2022-10-16T09:17:43;16.80;16.00;10.00
44933;PMS3003;30667;43.614;1.442;2022-10-16T09:20:40;17.00;16.00;10.60
44933;PMS3003;30667;43.614;1.442;2022-10-16T09:23:15;17.80;16.20;9.60
44933;PMS3003;30667;43.614;1.442;2022-10-16T09:25:51;21.20;17.20;10.00
44933;PMS3003;30667;43.614;1.442;2022-10-16T09:28:18;16.80;16.00;9.60
44933;PMS3003;30667;43.614;1.442;2022-10-16T09:30:44;16.75;16.00;10.00
44933;PMS3003;30667;43.614;1.442;2022-10-16T09:33:10;16.60;16.40;9.00
44933;PMS3003;30667;43.614;1.442;2022-10-16T09:35:38;18.40;17.40;10.00
44933;PMS3003;30667;43.614;1.442;2022-10-16T09:38:07;15.80;13.80;7.60
44933;PMS3003;30667;43.614;1.442;2022-10-16T09:40:34;12.60;12.60;7.00
44933;PMS3003;30667;43.614;1.442;2022-10-16T09:43:48;12.40;12.40;7.20
44933;PMS3003;30667;43.614;1.442;2022-10-16T09:45:55;16.00;14.40;8.60
44933;PMS3003;30667;43.614;1.442;2022-10-16T09:48:25;15.40;13.40;7.00
44933;PMS3003;30667;43.614;1.442;2022-10-16T09:50:57;12.80;10.80;7.00
44933;PMS3003;30667;43.614;1.442;2022-10-16T09:53:38;12.00;12.00;8.00
44933;PMS3003;30667;43.614;1.442;2022-10-16T09:56:09;18.20;16.20;10.00
44933;PMS3003;30667;43.614;1.442;2022-10-16T09:58:41;14.60;14.60;9.20
44933;PMS3003;30667;43.614;1.442;2022-10-16T10:01:11;17.00;15.80;8.00
44933;PMS3003;30667;43.614;1.442;2022-10-16T10:03:40;17.20;16.00;9.00
44933;PMS3003;30667;43.614;1.442;2022-10-16T10:08:55;13.20;12.80;7.60
44933;PMS3003;30667;43.614;1.442;2022-10-16T10:11:39;15.20;11.00;7.00
44933;PMS3003;30667;43.614;1.442;2022-10-16T10:14:08;17.20;15.20;9.00
44933;PMS3003;30667;43.614;1.442;2022-10-16T10:16:46;16.60;14.80;10.20
44933;PMS3003;30667;43.614;1.442;2022-10-16T10:19:17;14.60;13.80;8.00
44933;PMS3003;30667;43.614;1.442;2022-10-16T10:21:47;16.20;14.60;8.00
44933;PMS3003;30667;43.614;1.442;2022-10-16T10:24:14;18.00;14.80;9.00
44933;PMS3003;30667;43.614;1.442;2022-10-16T10:27:02;12.80;12.60;7.40
44933;PMS3003;30667;43.614;1.442;2022-10-16T10:32:12;17.40;15.40;10.00
44933;PMS3003;30667;43.614;1.442;2022-10-16T10:37:37;14.60;13.80;7.40
44933;PMS3003;30667;43.614;1.442;2022-10-16T10:48:14;13.00;12.60;7.80
44933;PMS3003;30667;43.614;1.442;2022-10-16T10:51:15;15.40;15.00;9.00
44933;PMS3003;30667;43.614;1.442;2022-10-16T10:54:14;18.00;16.00;9.00
44933;PMS3003;30667;43.614;1.442;2022-10-16T11:08:19;14.80;13.20;7.20
44933;PMS3003;30667;43.614;1.442;2022-10-16T11:11:02;11.20;11.20;7.40
44933;PMS3003;30667;43.614;1.442;2022-10-16T11:16:06;12.40;12.20;7.60
44933;PMS3003;30667;43.614;1.442;2022-10-16T11:21:39;13.40;13.00;7.00
44933;PMS3003;30667;43.614;1.442;2022-10-16T11:24:29;12.60;12.20;7.80
44933;PMS3003;30667;43.614;1.442;2022-10-16T11:27:07;14.80;12.20;7.20
44933;PMS3003;30667;43.614;1.442;2022-10-16T11:29:40;11.00;11.00;7.00
44933;PMS3003;30667;43.614;1.442;2022-10-16T11:32:28;10.60;9.40;5.40
44933;PMS3003;30667;43.614;1.442;2022-10-16T11:35:02;14.00;12.00;6.80
44933;PMS3003;30667;43.614;1.442;2022-10-16T11:37:49;14.20;11.60;7.00
44933;PMS3003;30667;43.614;1.442;2022-10-16T11:40:20;16.00;14.60;7.80
44933;PMS3003;30667;43.614;1.442;2022-10-16T11:43:02;14.80;12.00;6.80
44933;PMS3003;30667;43.614;1.442;2022-10-16T11:45:46;11.60;11.60;7.20
44933;PMS3003;30667;43.614;1.442;2022-10-16T11:48:33;15.00;10.20;6.00
44933;PMS3003;30667;43.614;1.442;2022-10-16T11:54:02;13.00;11.60;7.80
44933;PMS3003;30667;43.614;1.442;2022-10-16T11:56:38;16.20;14.20;8.40
44933;PMS3003;30667;43.614;1.442;2022-10-16T12:01:44;11.60;11.60;7.20
44933;PMS3003;30667;43.614;1.442;2022-10-16T12:07:06;13.80;12.00;8.00
44933;PMS3003;30667;43.614;1.442;2022-10-16T12:09:37;11.80;11.80;7.40
44933;PMS3003;30667;43.614;1.442;2022-10-16T12:12:04;12.40;12.00;7.00
44933;PMS3003;30667;43.614;1.442;2022-10-16T12:14:48;13.60;12.00;7.80
44933;PMS3003;30667;43.614;1.442;2022-10-16T12:20:12;12.20;11.40;8.00
44933;PMS3003;30667;43.614;1.442;2022-10-16T12:22:49;11.00;11.00;5.60
44933;PMS3003;30667;43.614;1.442;2022-10-16T12:30:23;13.00;11.80;8.00
44933;PMS3003;30667;43.614;1.442;2022-10-16T12:32:55;15.80;10.80;6.00
44933;PMS3003;30667;43.614;1.442;2022-10-16T12:35:26;12.40;11.40;7.40
44933;PMS3003;30667;43.614;1.442;2022-10-16T12:38:04;11.00;11.00;7.00
44933;PMS3003;30667;43.614;1.442;2022-10-16T12:40:32;11.00;10.80;6.60
44933;PMS3003;30667;43.614;1.442;2022-10-16T12:43:11;10.40;9.00;5.60
44933;PMS3003;30667;43.614;1.442;2022-10-16T12:45:58;11.00;11.00;6.00
44933;PMS3003;30667;43.614;1.442;2022-10-16T12:48:25;12.20;11.00;7.00
44933;PMS3003;30667;43.614;1.442;2022-10-16T12:50:50;13.00;11.50;8.00
44933;PMS3003;30667;43.614;1.442;2022-10-16T12:53:34;12.50;10.50;7.00
44933;PMS3003;30667;43.614;1.442;2022-10-16T13:06:44;13.40;11.00;6.80
44933;PMS3003;30667;43.614;1.442;2022-10-16T13:27:31;9.50;9.50;5.50
44933;PMS3003;30667;43.614;1.442;2022-10-16T13:30:09;9.60;8.60;5.60
44933;PMS3003;30667;43.614;1.442;2022-10-16T13:32:40;10.00;9.60;6.00
44933;PMS3003;30667;43.614;1.442;2022-10-16T13:35:26;9.20;9.20;6.20
44933;PMS3003;30667;43.614;1.442;2022-10-16T13:41:01;11.20;10.00;6.00
44933;PMS3003;30667;43.614;1.442;2022-10-16T13:43:39;12.20;11.20;7.00
44933;PMS3003;30667;43.614;1.442;2022-10-16T13:48:44;10.00;10.00;5.20
44933;PMS3003;30667;43.614;1.442;2022-10-16T13:51:17;10.60;10.40;7.00
44933;PMS3003;30667;43.614;1.442;2022-10-16T13:53:43;10.00;10.00;6.00
44933;PMS3003;30667;43.614;1.442;2022-10-16T13:56:14;11.00;10.60;7.00
44933;PMS3003;30667;43.614;1.442;2022-10-16T13:58:41;11.20;9.40;5.80
44933;PMS3003;30667;43.614;1.442;2022-10-16T14:01:20;9.00;9.00;5.60
44933;PMS3003;30667;43.614;1.442;2022-10-16T14:03:50;10.20;10.00;7.00
44933;PMS3003;30667;43.614;1.442;2022-10-16T14:06:17;10.00;9.80;6.40
44933;PMS3003;30667;43.614;1.442;2022-10-16T14:08:59;11.40;10.80;6.00
44933;PMS3003;30667;43.614;1.442;2022-10-16T14:11:29;11.20;10.40;6.00
44933;PMS3003;30667;43.614;1.442;2022-10-16T14:13:55;9.75;9.75;5.75
44933;PMS3003;30667;43.614;1.442;2022-10-16T14:16:22;10.60;9.20;5.00
44933;PMS3003;30667;43.614;1.442;2022-10-16T14:19:01;12.40;10.80;6.20
44933;PMS3003;30667;43.614;1.442;2022-10-16T14:21:30;10.80;9.20;6.00
44933;PMS3003;30667;43.614;1.442;2022-10-16T14:23:57;10.00;10.00;5.00
44933;PMS3003;30667;43.614;1.442;2022-10-16T14:26:23;8.50;8.50;5.00
44933;PMS3003;30667;43.614;1.442;2022-10-16T14:31:39;10.00;9.20;6.00
44933;PMS3003;30667;43.614;1.442;2022-10-16T14:34:22;10.20;8.00;4.20
44933;PMS3003;30667;43.614;1.442;2022-10-16T14:37:21;10.00;10.00;6.40
44933;PMS3003;30667;43.614;1.442;2022-10-16T14:39:52;10.00;8.60;5.00
44933;PMS3003;30667;43.614;1.442;2022-10-16T14:42:20;11.00;9.20;5.20
44933;PMS3003;30667;43.614;1.442;2022-10-16T14:44:49;9.00;9.00;5.00
44933;PMS3003;30667;43.614;1.442;2022-10-16T14:47:18;9.40;8.80;5.00
44933;PMS3003;30667;43.614;1.442;2022-10-16T14:49:49;9.00;8.40;6.00
44933;PMS3003;30667;43.614;1.442;2022-10-16T14:52:15;10.00;10.00;5.80
44933;PMS3003;30667;43.614;1.442;2022-10-16T14:54:41;10.00;9.00;5.00
44933;PMS3003;30667;43.614;1.442;2022-10-16T14:57:26;9.20;9.20;5.40
44933;PMS3003;30667;43.614;1.442;2022-10-16T14:59:56;9.00;8.00;4.80
44933;PMS3003;30667;43.614;1.442;2022-10-16T15:02:27;10.50;8.75;5.25
44933;PMS3003;30667;43.614;1.442;2022-10-16T15:04:58;11.40;9.80;6.00
44933;PMS3003;30667;43.614;1.442;2022-10-16T15:07:35;8.60;7.60;5.60
44933;PMS3003;30667;43.614;1.442;2022-10-16T15:10:00;8.75;8.75;5.50
44933;PMS3003;30667;43.614;1.442;2022-10-16T15:12:26;10.50;8.00;5.00
44933;PMS3003;30667;43.614;1.442;2022-10-16T15:14:51;10.75;10.00;5.50
44933;PMS3003;30667;43.614;1.442;2022-10-16T15:17:17;10.50;9.00;5.50
44933;PMS3003;30667;43.614;1.442;2022-10-16T15:19:42;9.50;8.50;5.00
44933;PMS3003;30667;43.614;1.442;2022-10-16T15:22:09;8.00;8.00;5.00
44933;PMS3003;30667;43.614;1.442;2022-10-16T15:24:36;9.00;8.60;5.00
44933;PMS3003;30667;43.614;1.442;2022-10-16T15:27:01;9.00;9.00;5.00
44933;PMS3003;30667;43.614;1.442;2022-10-16T15:29:27;8.00;8.00;5.00
44933;PMS3003;30667;43.614;1.442;2022-10-16T15:31:52;9.75;8.75;5.25
44933;PMS3003;30667;43.614;1.442;2022-10-16T15:34:17;7.50;7.50;4.50
44933;PMS3003;30667;43.614;1.442;2022-10-16T15:36:44;10.80;9.20;5.40
44933;PMS3003;30667;43.614;1.442;2022-10-16T15:39:12;9.40;9.00;5.00
44933;PMS3003;30667;43.614;1.442;2022-10-16T15:41:39;7.00;7.00;5.00
44933;PMS3003;30667;43.614;1.442;2022-10-16T15:44:04;13.00;11.00;6.00
44933;PMS3003;30667;43.614;1.442;2022-10-16T15:46:30;11.00;10.00;5.00
44933;PMS3003;30667;43.614;1.442;2022-10-16T15:48:56;7.80;7.00;4.00
44933;PMS3003;30667;43.614;1.442;2022-10-16T15:51:23;10.80;8.60;5.00
44933;PMS3003;30667;43.614;1.442;2022-10-16T15:53:49;9.00;7.80;4.80
44933;PMS3003;30667;43.614;1.442;2022-10-16T15:56:16;8.40;8.00;5.00
44933;PMS3003;30667;43.614;1.442;2022-10-16T15:58:42;9.00;8.00;4.80
44933;PMS3003;30667;43.614;1.442;2022-10-16T16:01:08;8.20;8.00;4.80
44933;PMS3003;30667;43.614;1.442;2022-10-16T16:03:35;7.80;7.80;4.80
44933;PMS3003;30667;43.614;1.442;2022-10-16T16:06:05;7.60;6.80;4.00
44933;PMS3003;30667;43.614;1.442;2022-10-16T16:08:32;10.80;7.80;5.00
44933;PMS3003;30667;43.614;1.442;2022-10-16T16:13:28;11.00;11.00;5.00
44933;PMS3003;30667;43.614;1.442;2022-10-16T16:15:53;8.00;8.00;6.00